Greymatters — ZCTE8 — position and weather

sailwx.info

Track history (hours):
 
Tides and Currents Weather Stations Pressure Air Temp Water Temp Dewpoint Dewpoint Depression Visibility Wind Speed Wind Dir Waves Ship Positions

Greymatters

Last reported at 2018-Nov-11 02:30 UTC. Time now 2018-Nov-17 16:57 UTC.
Position N 25°46' W 080°09'.

Length 45 m; draft 2.1 m.

Type: Pleasure craft. MMSI: 319826000.

Date/timePositionNaut miles runAvg speedWind from/ knotsBaromVisibWave heightAir tempDewpointWater temp
2018-Nov-11 02:30N 25°46' W 080°09'0 0.0
2018-Nov-11 02:00N 25°46' W 080°09'0 0.0
2018-Nov-11 01:21N 25°46' W 080°09'0 0.0
2018-Nov-11 01:01N 25°46' W 080°09'0 0.0
2018-Nov-11 00:31N 25°46' W 080°09'0 0.0
2018-Nov-10 23:58N 25°46' W 080°09'0 0.0
2018-Nov-10 23:32N 25°46' W 080°09'0 0.0
2018-Nov-10 23:02N 25°46' W 080°09'2 4.4
2018-Nov-10 22:32N 25°46' W 080°11'4 8.4
2018-Nov-10 22:02N 25°42' W 080°12'4 7.0
2018-Nov-10 21:32N 25°39' W 080°10'612.8
2018-Nov-10 21:02N 25°45' W 080°07'2 3.1
2018-Nov-10 20:32N 25°47' W 080°07'0 0.0
2018-Nov-10 20:00N 25°47' W 080°07'1 2.8
2018-Nov-10 19:32N 25°46' W 080°07'1 2.2
2018-Nov-10 19:00N 25°46' W 080°09'0 0.0
2018-Nov-10 18:30N 25°46' W 080°09'0 0.0
2018-Nov-10 17:54N 25°46' W 080°09'0 0.0
2018-Nov-10 17:31N 25°46' W 080°09'0 0.0
2018-Nov-10 17:01N 25°46' W 080°09'0 0.0
2018-Nov-10 16:31N 25°46' W 080°09'0 0.0
2018-Nov-10 16:02N 25°46' W 080°09'0 0.0
2018-Nov-10 15:32N 25°46' W 080°09'0 0.0
2018-Nov-10 15:02N 25°46' W 080°09'0 0.0
2018-Nov-10 14:30N 25°46' W 080°09'0 0.0
2018-Nov-10 14:00N 25°46' W 080°09'0 0.0
2018-Nov-10 13:30N 25°46' W 080°09'0 0.0
2018-Nov-10 12:58N 25°46' W 080°09'0 0.0
2018-Nov-10 12:31N 25°46' W 080°09'0 0.0
2018-Nov-10 12:01N 25°46' W 080°09'0 0.0
2018-Nov-10 11:32N 25°46' W 080°09'0 0.0
2018-Nov-10 11:02N 25°46' W 080°09'0 0.0
2018-Nov-10 10:32N 25°46' W 080°09'0 0.0
2018-Nov-10 10:00N 25°46' W 080°09'0 0.0
2018-Nov-10 09:27N 25°46' W 080°09'0 0.0
2018-Nov-10 08:57N 25°46' W 080°09'0 0.0
2018-Nov-10 08:28N 25°46' W 080°09'0 0.0
2018-Nov-10 08:01N 25°46' W 080°09'0 0.0
2018-Nov-10 07:28N 25°46' W 080°09'0 0.0
2018-Nov-10 06:59N 25°46' W 080°09'0 0.0
2018-Nov-10 06:32N 25°46' W 080°09'0 0.0
2018-Nov-10 05:56N 25°46' W 080°09'0 0.0
2018-Nov-10 05:30N 25°46' W 080°09'0 0.0
2018-Nov-10 04:54N 25°46' W 080°09'0 0.0
2018-Nov-10 04:30N 25°46' W 080°09'0 0.0
2018-Nov-10 03:55N 25°46' W 080°09'0 0.0
2018-Nov-10 03:31N 25°46' W 080°09'0 0.0
2018-Nov-10 03:01N 25°46' W 080°09'0 0.0
2018-Nov-10 02:23N 25°46' W 080°09'0 0.0
2018-Nov-10 02:02N 25°46' W 080°09'0 0.0
2018-Nov-10 01:32N 25°46' W 080°09'0 0.0
2018-Nov-10 01:00N 25°46' W 080°09'0 0.0
2018-Nov-10 00:30N 25°46' W 080°09'0 0.0
2018-Nov-10 00:00N 25°46' W 080°09'0 0.0
2018-Nov-09 23:31N 25°46' W 080°09'2 4.4
2018-Nov-09 23:02N 25°46' W 080°11'4 8.0
2018-Nov-09 22:32N 25°42' W 080°11'1 1.4
2018-Nov-09 21:56N 25°42' W 080°11'0 0.0
2018-Nov-09 21:18N 25°42' W 080°11'0 0.0
2018-Nov-09 20:51N 25°42' W 080°11'0 0.0
2018-Nov-09 20:30N 25°42' W 080°11'0 0.0
2018-Nov-09 20:01N 25°42' W 080°11'0 0.0
2018-Nov-09 19:31N 25°42' W 080°11'0 0.0
2018-Nov-09 18:58N 25°42' W 080°11'0 0.0
2018-Nov-09 18:29N 25°42' W 080°11'1 2.6
2018-Nov-09 18:02N 25°42' W 080°12'4 8.3
2018-Nov-09 17:32N 25°46' W 080°11'2 4.3
2018-Nov-09 17:00N 25°46' W 080°09'0 0.0
2018-Nov-09 16:24N 25°46' W 080°09'0 0.0
2018-Nov-09 15:57N 25°46' W 080°09'0 0.0
2018-Nov-09 15:28N 25°46' W 080°09'0 0.0
2018-Nov-09 15:01N 25°46' W 080°09'0 0.0
2018-Nov-09 14:31N 25°46' W 080°09'0 0.0
2018-Nov-09 14:02N 25°46' W 080°09'0 0.0
2018-Nov-09 13:26N 25°46' W 080°09'0 0.0
2018-Nov-09 12:56N 25°46' W 080°09'0 0.0
2018-Nov-09 12:30N 25°46' W 080°09'0 0.0
2018-Nov-09 11:57N 25°46' W 080°09'0 0.0
2018-Nov-09 11:30N 25°46' W 080°09'0 0.0
2018-Nov-09 11:01N 25°46' W 080°09'0 0.0
2018-Nov-09 10:31N 25°46' W 080°09'0 0.0
2018-Nov-09 10:01N 25°46' W 080°09'0 0.0
2018-Nov-09 09:32N 25°46' W 080°09'0 0.0
2018-Nov-09 09:02N 25°46' W 080°09'0 0.0
2018-Nov-09 08:32N 25°46' W 080°09'0 0.0
2018-Nov-09 08:00N 25°46' W 080°09'0 0.0
2018-Nov-09 07:30N 25°46' W 080°09'0 0.0
2018-Nov-09 06:57N 25°46' W 080°09'0 0.0
2018-Nov-09 06:31N 25°46' W 080°09'0 0.0
2018-Nov-09 06:01N 25°46' W 080°09'0 0.0
2018-Nov-09 05:31N 25°46' W 080°09'0 0.0
2018-Nov-09 04:59N 25°46' W 080°09'0 0.0
2018-Nov-09 04:32N 25°46' W 080°09'0 0.0
2018-Nov-09 03:59N 25°46' W 080°09'0 0.0
2018-Nov-09 03:30N 25°46' W 080°09'0 0.0
2018-Nov-09 02:57N 25°46' W 080°09'0 0.0
2018-Nov-09 02:30N 25°46' W 080°09'0 0.0
2018-Nov-09 02:01N 25°46' W 080°09'0 0.0
2018-Nov-09 01:31N 25°46' W 080°09'0 0.0
2018-Nov-09 00:55N 25°46' W 080°09'0 0.0
2018-Nov-09 00:32N 25°46' W 080°09'0 0.0
2018-Nov-09 00:02N 25°46' W 080°09'0 0.0
2018-Nov-08 23:32N 25°46' W 080°09'1 3.0
2018-Nov-08 23:02N 25°46' W 080°10'2 4.7
2018-Nov-08 22:32N 25°44' W 080°11'1 2.4
2018-Nov-08 22:02N 25°43' W 080°10'1 2.8
2018-Nov-08 21:32N 25°42' W 080°11'4 8.7
2018-Nov-08 21:02N 25°46' W 080°11'2 4.2
2018-Nov-08 20:31N 25°46' W 080°09'0 0.0
2018-Nov-08 20:02N 25°46' W 080°09'0 0.0
2018-Nov-08 19:32N 25°46' W 080°09'0 0.0
2018-Nov-08 18:59N 25°46' W 080°09'0 0.0
2018-Nov-08 18:30N 25°46' W 080°09'0 0.0
2018-Nov-08 17:57N 25°46' W 080°09'0 0.0
2018-Nov-08 17:30N 25°46' W 080°09'0 0.0
2018-Nov-08 17:01N 25°46' W 080°09'0 0.0
2018-Nov-08 16:31N 25°46' W 080°09'0 0.0
2018-Nov-08 15:58N 25°46' W 080°09'0 0.0
2018-Nov-08 15:32N 25°46' W 080°09'0 0.0
2018-Nov-08 14:59N 25°46' W 080°09'0 0.0
2018-Nov-08 14:32N 25°46' W 080°09'0 0.0
2018-Nov-08 14:00N 25°46' W 080°09'0 0.0
2018-Nov-08 13:30N 25°46' W 080°09'0 0.0
2018-Nov-08 13:00N 25°46' W 080°09'0 0.0
2018-Nov-08 12:31N 25°46' W 080°09'0 0.0
2018-Nov-08 12:01N 25°46' W 080°09'0 0.0
2018-Nov-08 11:31N 25°46' W 080°09'0 0.0
2018-Nov-08 10:59N 25°46' W 080°09'0 0.0
2018-Nov-08 10:32N 25°46' W 080°09'0 0.0
2018-Nov-08 10:02N 25°46' W 080°09'0 0.0
2018-Nov-08 09:27N 25°46' W 080°09'0 0.0
2018-Nov-08 09:00N 25°46' W 080°09'0 0.0
2018-Nov-08 08:27N 25°46' W 080°09'0 0.0
2018-Nov-08 08:01N 25°46' W 080°09'0 0.0
2018-Nov-08 07:25N 25°46' W 080°09'0 0.0
2018-Nov-08 06:58N 25°46' W 080°09'0 0.0
2018-Nov-08 06:23N 25°46' W 080°09'0 0.0
2018-Nov-08 05:59N 25°46' W 080°09'0 0.0
2018-Nov-08 05:32N 25°46' W 080°09'0 0.0
2018-Nov-08 04:54N 25°46' W 080°09'0 0.0
2018-Nov-08 04:30N 25°46' W 080°09'0 0.0
2018-Nov-08 04:00N 25°46' W 080°09'0 0.0
2018-Nov-08 03:28N 25°46' W 080°09'0 0.0
2018-Nov-08 02:55N 25°46' W 080°09'0 0.0
2018-Nov-08 02:31N 25°46' W 080°09'0 0.0
2018-Nov-08 02:02N 25°46' W 080°09'0 0.0
2018-Nov-08 01:32N 25°46' W 080°09'0 0.0
2018-Nov-08 01:02N 25°46' W 080°09'0 0.0
2018-Nov-08 00:42N 25°46' W 080°09'0 0.0
2018-Nov-08 00:30N 25°46' W 080°09'0 0.0
2018-Nov-08 00:27N 25°46' W 080°09'0 0.0
2018-Nov-08 00:00N 25°46' W 080°09'0 0.0
2018-Nov-07 23:30N 25°46' W 080°09'0 0.0
2018-Nov-07 22:55N 25°46' W 080°09'0 0.0
2018-Nov-07 22:31N 25°46' W 080°09'0 0.0
2018-Nov-07 22:01N 25°46' W 080°09'0 0.0
2018-Nov-07 21:32N 25°46' W 080°09'0 0.0
2018-Nov-07 21:02N 25°46' W 080°09'0 0.0
2018-Nov-07 20:32N 25°46' W 080°09'0 0.0
2018-Nov-07 20:00N 25°46' W 080°09'0 0.0
2018-Nov-07 19:30N 25°46' W 080°09'0 0.0
2018-Nov-07 18:49N 25°46' W 080°09'0 0.0
2018-Nov-07 18:31N 25°46' W 080°09'0 0.0
2018-Nov-07 18:01N 25°46' W 080°09'0 0.0
2018-Nov-07 17:31N 25°46' W 080°09'0 0.0
2018-Nov-07 16:56N 25°46' W 080°09'0 0.0
2018-Nov-07 16:32N 25°46' W 080°09'0 0.0
2018-Nov-07 16:02N 25°46' W 080°09'0 0.0
2018-Nov-07 15:27N 25°46' W 080°09'0 0.0
2018-Nov-07 15:00N 25°46' W 080°09'0 0.0
2018-Nov-07 14:30N 25°46' W 080°09'0 0.0
2018-Nov-07 14:01N 25°46' W 080°09'0 0.0
2018-Nov-07 13:31N 25°46' W 080°09'0 0.0
2018-Nov-07 13:01N 25°46' W 080°09'0 0.0
2018-Nov-07 12:32N 25°46' W 080°09'0 0.0
2018-Nov-07 12:02N 25°46' W 080°09'0 0.0
2018-Nov-07 11:26N 25°46' W 080°09'0 0.0
2018-Nov-07 11:00N 25°46' W 080°09'0 0.0
2018-Nov-07 10:30N 25°46' W 080°09'0 0.0
2018-Nov-07 10:00N 25°46' W 080°09'0 0.0
2018-Nov-07 09:28N 25°46' W 080°09'0 0.0
2018-Nov-07 08:58N 25°46' W 080°09'0 0.0
2018-Nov-07 08:26N 25°46' W 080°09'0 0.0
2018-Nov-07 07:53N 25°46' W 080°09'0 0.0
2018-Nov-07 07:32N 25°46' W 080°09'0 0.0
2018-Nov-07 07:02N 25°46' W 080°09'0 0.0
2018-Nov-07 06:30N 25°46' W 080°09'0 0.0
2018-Nov-07 06:00N 25°46' W 080°09'0 0.0
2018-Nov-07 05:30N 25°46' W 080°09'0 0.0
2018-Nov-07 05:01N 25°46' W 080°09'0 0.0
2018-Nov-07 04:28N 25°46' W 080°09'0 0.0
2018-Nov-06 23:20N 25°46' W 080°09'0 0.0
2018-Nov-06 22:59N 25°46' W 080°09'0 0.0
2018-Nov-06 21:59N 25°46' W 080°09'0 0.0
2018-Nov-06 21:30N 25°46' W 080°09'0 0.0
2018-Nov-06 21:00N 25°46' W 080°09'0 0.0
2018-Nov-06 20:30N 25°46' W 080°09'0 0.0
2018-Nov-06 20:01N 25°46' W 080°09'0 0.0
2018-Nov-06 19:55N 25°46' W 080°09'0 0.0
2018-Nov-06 19:28N 25°46' W 080°09'0 0.0
2018-Nov-06 18:59N 25°46' W 080°09'0 0.0
2018-Nov-06 18:29N 25°46' W 080°09'0 0.0
2018-Nov-06 17:59N 25°46' W 080°09'0 0.0
2018-Nov-06 17:24N 25°46' W 080°09'0 0.0
2018-Nov-06 17:03N 25°46' W 080°09'0 0.1
2018-Nov-06 17:00N 25°46' W 080°09'0 0.1
2018-Nov-06 16:30N 25°46' W 080°09'0 0.1
2018-Nov-06 16:01N 25°46' W 080°09'0 0.0
2018-Nov-06 15:28N 25°46' W 080°09'0 0.0
2018-Nov-06 15:01N 25°46' W 080°09'0 0.1
2018-Nov-06 14:58N 25°46' W 080°09'0 0.0
2018-Nov-06 14:29N 25°46' W 080°09'0 0.0
2018-Nov-06 14:02N 25°46' W 080°09'0 0.0
2018-Nov-06 13:59N 25°46' W 080°09'0 0.0
2018-Nov-06 13:26N 25°46' W 080°09'0 0.0
2018-Nov-06 13:00N 25°46' W 080°09'0 0.0
2018-Nov-06 12:30N 25°46' W 080°09'0 0.0
2018-Nov-06 12:03N 25°46' W 080°09'0 0.0
2018-Nov-06 12:00N 25°46' W 080°09'0 0.0
2018-Nov-06 11:28N 25°46' W 080°09'0 0.0
2018-Nov-06 10:55N 25°46' W 080°09'0 0.0
2018-Nov-06 10:28N 25°46' W 080°09'0 0.0
2018-Nov-06 10:02N 25°46' W 080°09'0 0.0
2018-Nov-06 09:59N 25°46' W 080°09'0 0.0
2018-Nov-06 09:23N 25°46' W 080°09'0 0.0
2018-Nov-06 09:02N 25°46' W 080°09'0 0.0
2018-Nov-06 08:59N 25°46' W 080°09'0 0.0
2018-Nov-06 08:27N 25°46' W 080°09'0 0.0
2018-Nov-06 08:00N 25°46' W 080°09'0 0.0
2018-Nov-06 07:30N 25°46' W 080°09'0 0.0
2018-Nov-06 06:58N 25°46' W 080°09'0 0.0
2018-Nov-06 06:28N 25°46' W 080°09'0 0.0
2018-Nov-06 05:55N 25°46' W 080°09'0 0.0
2018-Nov-06 05:29N 25°46' W 080°09'0 0.0
2018-Nov-06 05:02N 25°46' W 080°09'0 0.0
2018-Nov-06 04:56N 25°46' W 080°09'0 0.0
2018-Nov-06 04:29N 25°46' W 080°09'0 0.0
2018-Nov-06 04:03N 25°46' W 080°09'0 0.0
2018-Nov-06 04:00N 25°46' W 080°09'0 0.0
2018-Nov-06 03:30N 25°46' W 080°09'0 0.0
2018-Nov-06 03:03N 25°46' W 080°09'0 0.1
2018-Nov-06 03:00N 25°46' W 080°09'0 0.0
2018-Nov-06 02:28N 25°46' W 080°09'0 0.0
2018-Nov-06 01:58N 25°46' W 080°09'0 0.0
2018-Nov-06 01:19N 25°46' W 080°09'0 0.0
2018-Nov-06 01:02N 25°46' W 080°09'0 0.0
2018-Nov-05 23:27N 25°46' W 080°09'0 0.0
2018-Nov-05 23:00N 25°46' W 080°09'0 0.0
2018-Nov-05 22:24N 25°46' W 080°09'0 0.0
2018-Nov-05 21:55N 25°46' W 080°09'0 0.0
2018-Nov-05 21:28N 25°46' W 080°09'0 0.0
2018-Nov-05 21:01N 25°46' W 080°09'0 0.0
2018-Nov-05 20:55N 25°46' W 080°09'0 0.0
2018-Nov-05 20:26N 25°46' W 080°09'0 0.0
2018-Nov-05 20:02N 25°46' W 080°09'0 0.0
2018-Nov-05 19:59N 25°46' W 080°09'0 0.0
2018-Nov-05 19:31N 25°46' W 080°09'3 6.1
2018-Nov-05 19:03N 25°46' W 080°05'114.9
2018-Nov-05 19:00N 25°47' W 080°05'815.1
2018-Nov-05 18:31N 25°54' W 080°04'715.0
2018-Nov-05 18:03N 26°01' W 080°04'117.3
2018-Nov-05 18:00N 26°02' W 080°05'5 9.3
2018-Nov-05 17:30N 26°06' W 080°07'0 0.0
2018-Nov-05 17:03N 26°06' W 080°07'0 0.0
2018-Nov-05 17:00N 26°06' W 080°07'0 0.0
2018-Nov-05 16:30N 26°06' W 080°07'0 0.0
2018-Nov-05 16:03N 26°06' W 080°07'0 0.0
2018-Nov-05 16:00N 26°06' W 080°07'0 0.0
2018-Nov-05 15:30N 26°06' W 080°07'0 0.0
2018-Nov-05 15:03N 26°06' W 080°07'0 0.0
2018-Nov-05 15:00N 26°06' W 080°07'0 0.0
2018-Nov-05 14:30N 26°06' W 080°07'0 0.0
2018-Nov-05 14:03N 26°06' W 080°07'0 0.0
2018-Nov-05 14:00N 26°06' W 080°07'0 0.0
2018-Nov-05 13:03N 26°06' W 080°07'0 0.0
2018-Nov-05 13:00N 26°06' W 080°07'0 0.0
2018-Nov-05 12:30N 26°06' W 080°07'0 0.0
2018-Nov-05 12:03N 26°06' W 080°07'0 0.0
2018-Nov-05 12:00N 26°06' W 080°07'0 0.0
2018-Nov-05 11:30N 26°06' W 080°07'0 0.0
2018-Nov-05 11:03N 26°06' W 080°07'0 0.0
2018-Nov-05 11:00N 26°06' W 080°07'0 0.0
2018-Nov-05 10:28N 26°06' W 080°07'0 0.0
2018-Nov-05 10:03N 26°06' W 080°07'0 0.0
2018-Nov-05 09:59N 26°06' W 080°07'0 0.0
2018-Nov-05 09:30N 26°06' W 080°07'0 0.0
2018-Nov-05 09:03N 26°06' W 080°07'0 0.0
2018-Nov-05 09:00N 26°06' W 080°07'0 0.0
2018-Nov-05 08:30N 26°06' W 080°07'0 0.0
2018-Nov-05 08:03N 26°06' W 080°07'0 0.0
2018-Nov-05 08:00N 26°06' W 080°07'0 0.0
2018-Nov-05 07:30N 26°06' W 080°07'0 0.0
2018-Nov-05 07:03N 26°06' W 080°07'0 0.0
2018-Nov-05 07:00N 26°06' W 080°07'0 0.0
2018-Nov-05 06:30N 26°06' W 080°07'0 0.0
2018-Nov-05 06:03N 26°06' W 080°07'0 0.0
2018-Nov-05 06:00N 26°06' W 080°07'0 0.0
2018-Nov-05 05:30N 26°06' W 080°07'0 0.0
2018-Nov-05 05:02N 26°06' W 080°07'0 0.0
2018-Nov-05 05:00N 26°06' W 080°07'0 0.0
2018-Nov-05 04:30N 26°06' W 080°07'0 0.0
2018-Nov-05 04:03N 26°06' W 080°07'0 0.0
2018-Nov-05 04:00N 26°06' W 080°07'0 0.0
2018-Nov-05 03:30N 26°06' W 080°07'0 0.0
2018-Nov-05 03:03N 26°06' W 080°07'0 0.0
2018-Nov-05 02:59N 26°06' W 080°07'0 0.0
2018-Nov-05 02:30N 26°06' W 080°07'0 0.0
2018-Nov-05 02:03N 26°06' W 080°07'0 0.0
2018-Nov-05 02:00N 26°06' W 080°07'0 0.0
2018-Nov-05 01:30N 26°06' W 080°07'0 0.0
2018-Nov-05 01:03N 26°06' W 080°07'0 0.0
2018-Nov-05 01:00N 26°06' W 080°07'0 0.0
2018-Nov-05 00:29N 26°06' W 080°07'0 0.0
2018-Nov-05 00:03N 26°06' W 080°07'0 0.0
2018-Nov-05 00:00N 26°06' W 080°07'0 0.0
2018-Nov-04 23:30N 26°06' W 080°07'0 0.0
2018-Nov-04 23:03N 26°06' W 080°07'0 0.0
2018-Nov-04 23:00N 26°06' W 080°07'0 0.0
2018-Nov-04 22:30N 26°06' W 080°07'0 0.0
2018-Nov-04 22:03N 26°06' W 080°07'0 0.0
2018-Nov-04 22:00N 26°06' W 080°07'0 0.0
2018-Nov-04 21:29N 26°06' W 080°07'0 0.0
2018-Nov-04 21:03N 26°06' W 080°07'0 0.0
2018-Nov-04 21:00N 26°06' W 080°07'0 0.0
2018-Nov-04 20:30N 26°06' W 080°07'0 0.0
2018-Nov-04 20:03N 26°06' W 080°07'0 0.0
2018-Nov-04 20:00N 26°06' W 080°07'0 0.0
2018-Nov-04 19:30N 26°06' W 080°07'0 0.0
2018-Nov-04 19:03N 26°06' W 080°07'0 0.0
2018-Nov-04 19:00N 26°06' W 080°07'0 0.0
2018-Nov-04 18:30N 26°06' W 080°07'0 0.0
2018-Nov-04 18:03N 26°06' W 080°07'0 0.0
2018-Nov-04 18:00N 26°06' W 080°07'0 0.0
2018-Nov-04 17:30N 26°06' W 080°07'0 0.0
2018-Nov-04 17:00N 26°06' W 080°07'0 0.0
2018-Nov-04 16:30N 26°06' W 080°07'0 0.0
2018-Nov-04 16:03N 26°06' W 080°07'0 0.0
2018-Nov-04 16:01N 26°06' W 080°07'0 0.0
2018-Nov-04 15:31N 26°06' W 080°07'0 0.0
2018-Nov-04 15:02N 26°06' W 080°07'0 0.0
2018-Nov-04 15:01N 26°06' W 080°07'0 0.0
2018-Nov-04 14:30N 26°06' W 080°07'0 0.0
2018-Nov-04 14:03N 26°06' W 080°07'0 0.0
2018-Nov-04 14:01N 26°06' W 080°07'0 0.0
2018-Nov-04 13:30N 26°06' W 080°07'0 0.0
2018-Nov-04 13:03N 26°06' W 080°07'0 0.0
2018-Nov-04 13:00N 26°06' W 080°07'0 0.0
2018-Nov-04 12:30N 26°06' W 080°07'0 0.0
2018-Nov-04 12:03N 26°06' W 080°07'0 0.0
2018-Nov-04 12:00N 26°06' W 080°07'0 0.0
2018-Nov-04 11:30N 26°06' W 080°07'0 0.0
2018-Nov-04 11:03N 26°06' W 080°07'0 0.0
2018-Nov-04 11:00N 26°06' W 080°07'0 0.0
2018-Nov-04 10:30N 26°06' W 080°07'0 0.0
2018-Nov-04 10:03N 26°06' W 080°07'0 0.0
2018-Nov-04 10:00N 26°06' W 080°07'0 0.0
2018-Nov-04 09:30N 26°06' W 080°07'0 0.0
2018-Nov-04 09:03N 26°06' W 080°07'0 0.0
2018-Nov-04 09:00N 26°06' W 080°07'0 0.0
2018-Nov-04 08:30N 26°06' W 080°07'0 0.0
2018-Nov-04 08:04N 26°06' W 080°07'0 0.0
2018-Nov-04 08:00N 26°06' W 080°07'0 0.0
2018-Nov-04 07:30N 26°06' W 080°07'0 0.0
2018-Nov-04 07:02N 26°06' W 080°07'0 0.0
2018-Nov-04 07:00N 26°06' W 080°07'0 0.0
2018-Nov-04 06:30N 26°06' W 080°07'0 0.0
2018-Nov-04 06:02N 26°06' W 080°07'0 0.0
2018-Nov-04 06:00N 26°06' W 080°07'0 0.0
2018-Nov-04 05:30N 26°06' W 080°07'0 0.0
2018-Nov-04 05:03N 26°06' W 080°07'0 0.0
2018-Nov-04 05:00N 26°06' W 080°07'0 0.0
2018-Nov-04 04:30N 26°06' W 080°07'0 0.0
2018-Nov-04 04:03N 26°06' W 080°07'0 0.0
2018-Nov-04 04:00N 26°06' W 080°07'0 0.0
2018-Nov-04 03:31N 26°06' W 080°07'0 0.0
2018-Nov-04 03:03N 26°06' W 080°07'0 0.0
2018-Nov-04 03:00N 26°06' W 080°07'0 0.0
2018-Nov-04 02:30N 26°06' W 080°07'0 0.0
2018-Nov-04 02:03N 26°06' W 080°07'0 0.0
2018-Nov-04 02:00N 26°06' W 080°07'0 0.0
2018-Nov-04 01:30N 26°06' W 080°07'0 0.0
2018-Nov-04 01:03N 26°06' W 080°07'0 0.0
2018-Nov-04 01:01N 26°06' W 080°07'0 0.0
2018-Nov-04 00:31N 26°06' W 080°07'0 0.0
2018-Nov-04 00:03N 26°06' W 080°07'0 0.0
2018-Nov-04 00:01N 26°06' W 080°07'0 0.0
2018-Nov-03 23:31N 26°06' W 080°07'0 0.0
2018-Nov-03 23:03N 26°06' W 080°07'0 0.0
2018-Nov-03 22:59N 26°06' W 080°07'0 0.0
2018-Nov-03 22:30N 26°06' W 080°07'0 0.0
2018-Nov-03 20:30N 26°06' W 080°07'0 0.0
2018-Nov-03 20:01N 26°06' W 080°07'0 0.0
2018-Nov-03 20:00N 26°06' W 080°07'0 0.0
2018-Nov-03 19:30N 26°06' W 080°07'0 0.0
2018-Nov-03 19:03N 26°06' W 080°07'0 0.0
2018-Nov-03 19:00N 26°06' W 080°07'0 0.0
2018-Nov-03 18:30N 26°06' W 080°07'0 0.0
2018-Nov-03 18:03N 26°06' W 080°07'0 0.0
2018-Nov-03 18:00N 26°06' W 080°07'0 0.0
2018-Nov-03 17:30N 26°06' W 080°07'0 0.0
2018-Nov-03 17:03N 26°06' W 080°07'0 0.0
2018-Nov-03 17:00N 26°06' W 080°07'0 0.0
2018-Nov-03 16:29N 26°06' W 080°07'0 0.0
2018-Nov-03 16:03N 26°06' W 080°07'0 0.0
2018-Nov-03 16:00N 26°06' W 080°07'0 0.0
2018-Nov-03 15:30N 26°06' W 080°07'0 0.0
2018-Nov-03 15:03N 26°06' W 080°07'0 0.0
2018-Nov-03 15:00N 26°06' W 080°07'0 0.0
2018-Nov-03 14:30N 26°06' W 080°07'0 0.0
2018-Nov-03 14:02N 26°06' W 080°07'0 0.0
2018-Nov-03 14:00N 26°06' W 080°07'0 0.0
2018-Nov-03 13:30N 26°06' W 080°07'0 0.0
2018-Nov-03 13:03N 26°06' W 080°07'0 0.1
2018-Nov-03 13:00N 26°06' W 080°07'0 0.0
2018-Nov-03 12:31N 26°06' W 080°07'0 0.0
2018-Nov-03 12:03N 26°06' W 080°07'0 0.1
2018-Nov-03 12:00N 26°06' W 080°07'0 0.0
2018-Nov-03 11:30N 26°06' W 080°07'0 0.0
2018-Nov-03 11:03N 26°06' W 080°07'0 0.0
2018-Nov-03 11:00N 26°06' W 080°07'0 0.0
2018-Nov-03 10:31N 26°06' W 080°07'0 0.0
2018-Nov-03 10:03N 26°06' W 080°07'0 0.0
2018-Nov-03 10:00N 26°06' W 080°07'0 0.0
2018-Nov-03 09:30N 26°06' W 080°07'0 0.0
2018-Nov-03 09:03N 26°06' W 080°07'0 0.0
2018-Nov-03 09:00N 26°06' W 080°07'0 0.0
2018-Nov-03 08:30N 26°06' W 080°07'0 0.0
2018-Nov-03 08:03N 26°06' W 080°07'0 0.0
2018-Nov-03 07:59N 26°06' W 080°07'0 0.0
2018-Nov-03 07:30N 26°06' W 080°07'0 0.0
2018-Nov-03 07:03N 26°06' W 080°07'0 0.0
2018-Nov-03 07:00N 26°06' W 080°07'0 0.0
2018-Nov-03 06:30N 26°06' W 080°07'0 0.0
2018-Nov-03 06:03N 26°06' W 080°07'0 0.0
2018-Nov-03 06:00N 26°06' W 080°07'0 0.0
2018-Nov-03 05:30N 26°06' W 080°07'0 0.0
2018-Nov-03 05:03N 26°06' W 080°07'0 0.0
2018-Nov-03 05:00N 26°06' W 080°07'0 0.0
2018-Nov-03 04:30N 26°06' W 080°07'0 0.0
2018-Nov-03 04:03N 26°06' W 080°07'0 0.0
2018-Nov-03 04:00N 26°06' W 080°07'0 0.0
2018-Nov-03 03:30N 26°06' W 080°07'0 0.0
2018-Nov-03 03:03N 26°06' W 080°07'0 0.0
2018-Nov-03 03:00N 26°06' W 080°07'0 0.0
2018-Nov-03 02:30N 26°06' W 080°07'0 0.0
2018-Nov-03 01:55N 26°06' W 080°07'0 0.0
2018-Nov-03 01:30N 26°06' W 080°07'0 0.0
2018-Nov-03 01:03N 26°06' W 080°07'0 0.0
2018-Nov-03 01:00N 26°06' W 080°07'0 0.0
2018-Nov-03 00:30N 26°06' W 080°07'0 0.0
2018-Nov-03 00:03N 26°06' W 080°07'0 0.0
2018-Nov-03 00:00N 26°06' W 080°07'0 0.0
2018-Nov-02 23:30N 26°06' W 080°07'0 0.0
2018-Nov-02 23:03N 26°06' W 080°07'0 0.0
2018-Nov-02 22:57N 26°06' W 080°07'0 0.0
2018-Nov-02 22:29N 26°06' W 080°07'0 0.0
2018-Nov-02 22:02N 26°06' W 080°07'0 0.0
2018-Nov-02 21:59N 26°06' W 080°07'0 0.0
2018-Nov-02 21:29N 26°06' W 080°07'0 0.0
2018-Nov-02 21:03N 26°06' W 080°07'0 0.0
2018-Nov-02 21:00N 26°06' W 080°07'0 0.0
2018-Nov-02 20:29N 26°06' W 080°07'0 0.0
2018-Nov-02 20:02N 26°06' W 080°07'0 0.0
2018-Nov-02 19:59N 26°06' W 080°07'0 0.0
2018-Nov-02 19:30N 26°06' W 080°07'0 0.0
2018-Nov-02 19:03N 26°06' W 080°07'0 0.0
2018-Nov-02 19:00N 26°06' W 080°07'0 0.0
2018-Nov-02 18:30N 26°06' W 080°07'0 0.0
2018-Nov-02 18:03N 26°06' W 080°07'0 0.0
2018-Nov-02 18:00N 26°06' W 080°07'0 0.0
2018-Nov-02 17:30N 26°06' W 080°07'0 0.0
2018-Nov-02 17:03N 26°06' W 080°07'0 0.0
2018-Nov-02 17:00N 26°06' W 080°07'0 0.0
2018-Nov-02 16:30N 26°06' W 080°07'0 0.0
2018-Nov-02 16:03N 26°06' W 080°07'0 0.0
2018-Nov-02 16:00N 26°06' W 080°07'0 0.0
2018-Nov-02 15:30N 26°06' W 080°07'0 0.0
2018-Nov-02 15:03N 26°06' W 080°07'0 0.0
2018-Nov-02 15:00N 26°06' W 080°07'0 0.0
2018-Nov-02 14:03N 26°06' W 080°07'0 0.0
2018-Nov-02 14:00N 26°06' W 080°07'0 0.0
2018-Nov-02 13:30N 26°06' W 080°07'0 0.0
2018-Nov-02 13:00N 26°06' W 080°07'0 0.0
2018-Nov-02 12:30N 26°06' W 080°07'0 0.0
2018-Nov-02 12:03N 26°06' W 080°07'0 0.0
2018-Nov-02 12:00N 26°06' W 080°07'0 0.0
2018-Nov-02 11:29N 26°06' W 080°07'0 0.0
2018-Nov-02 11:03N 26°06' W 080°07'0 0.0
2018-Nov-02 10:59N 26°06' W 080°07'0 0.0
2018-Nov-02 10:30N 26°06' W 080°07'0 0.0
2018-Nov-02 10:03N 26°06' W 080°07'0 0.0
2018-Nov-02 10:00N 26°06' W 080°07'0 0.0
2018-Nov-02 09:30N 26°06' W 080°07'0 0.0
2018-Nov-02 09:03N 26°06' W 080°07'0 0.0
2018-Nov-02 09:00N 26°06' W 080°07'0 0.0
2018-Nov-02 08:30N 26°06' W 080°07'0 0.0
2018-Nov-02 08:02N 26°06' W 080°07'0 0.0
2018-Nov-02 08:00N 26°06' W 080°07'0 0.0
2018-Nov-02 07:30N 26°06' W 080°07'0 0.0
2018-Nov-02 07:03N 26°06' W 080°07'0 0.0
2018-Nov-02 07:00N 26°06' W 080°07'0 0.0
2018-Nov-02 06:29N 26°06' W 080°07'0 0.0
2018-Nov-02 06:03N 26°06' W 080°07'0 0.0
2018-Nov-02 05:59N 26°06' W 080°07'0 0.0
2018-Nov-02 05:30N 26°06' W 080°07'0 0.0
2018-Nov-02 05:02N 26°06' W 080°07'0 0.0
2018-Nov-02 05:00N 26°06' W 080°07'0 0.0
2018-Nov-02 04:30N 26°06' W 080°07'0 0.0
2018-Nov-02 04:03N 26°06' W 080°07'0 0.0
2018-Nov-02 04:00N 26°06' W 080°07'0 0.0
2018-Nov-02 03:30N 26°06' W 080°07'0 0.0
2018-Nov-02 03:03N 26°06' W 080°07'0 0.0
2018-Nov-02 03:00N 26°06' W 080°07'0 0.0
2018-Nov-02 02:30N 26°06' W 080°07'0 0.0
2018-Nov-02 02:02N 26°06' W 080°07'0 0.0
2018-Nov-02 02:00N 26°06' W 080°07'0 0.0
2018-Nov-02 01:30N 26°06' W 080°07'0 0.0
2018-Nov-02 01:02N 26°06' W 080°07'0 0.0
2018-Nov-02 01:00N 26°06' W 080°07'0 0.0
2018-Nov-02 00:56N 26°06' W 080°07'0 0.0
2018-Nov-02 00:36N 26°06' W 080°07'0 0.0
2018-Nov-02 00:29N 26°06' W 080°07'0 0.0
2018-Nov-02 00:02N 26°06' W 080°07'0 0.0
2018-Nov-02 00:00N 26°06' W 080°07'0 0.0
2018-Nov-01 23:30N 26°06' W 080°07'0 0.0
2018-Nov-01 23:00N 26°06' W 080°07'0 0.0
2018-Nov-01 22:29N 26°06' W 080°07'0 0.0
2018-Nov-01 22:03N 26°06' W 080°07'0 0.0
2018-Nov-01 21:58N 26°06' W 080°07'0 0.0
2018-Nov-01 21:29N 26°06' W 080°07'0 0.0
2018-Nov-01 21:03N 26°06' W 080°07'0 0.0
2018-Nov-01 21:00N 26°06' W 080°07'0 0.0
2018-Nov-01 20:30N 26°06' W 080°07'0 0.0
2018-Nov-01 20:03N 26°06' W 080°07'0 0.0
2018-Nov-01 20:00N 26°06' W 080°07'0 0.0
2018-Nov-01 19:30N 26°06' W 080°07'0 0.0
2018-Nov-01 19:03N 26°06' W 080°07'0 0.0
2018-Nov-01 19:00N 26°06' W 080°07'0 0.0
2018-Nov-01 18:30N 26°06' W 080°07'0 0.0
2018-Nov-01 18:03N 26°06' W 080°07'0 0.0
2018-Nov-01 18:00N 26°06' W 080°07'0 0.0
2018-Nov-01 17:30N 26°06' W 080°07'0 0.0
2018-Nov-01 17:03N 26°06' W 080°07'0 0.0
2018-Nov-01 17:00N 26°06' W 080°07'0 0.0
2018-Nov-01 16:30N 26°06' W 080°07'0 0.0
2018-Nov-01 16:03N 26°06' W 080°07'0 0.0
2018-Nov-01 15:59N 26°06' W 080°07'0 0.0
2018-Nov-01 15:30N 26°06' W 080°07'0 0.0
2018-Nov-01 15:03N 26°06' W 080°07'0 0.0
2018-Nov-01 15:00N 26°06' W 080°07'0 0.0
2018-Nov-01 14:03N 26°06' W 080°07'0 0.0
2018-Nov-01 14:00N 26°06' W 080°07'0 0.0
2018-Nov-01 13:30N 26°06' W 080°07'0 0.0
2018-Nov-01 13:03N 26°06' W 080°07'0 0.1
2018-Nov-01 12:59N 26°06' W 080°07'0 0.0
2018-Nov-01 12:30N 26°06' W 080°07'0 0.0
2018-Nov-01 12:02N 26°06' W 080°07'0 0.0
2018-Nov-01 12:00N 26°06' W 080°07'0 0.0
2018-Nov-01 11:29N 26°06' W 080°07'0 0.0
2018-Nov-01 11:03N 26°06' W 080°07'0 0.0
2018-Nov-01 11:00N 26°06' W 080°07'0 0.0
2018-Nov-01 10:24N 26°06' W 080°07'0 0.0
2018-Nov-01 10:00N 26°06' W 080°07'0 0.0
2018-Nov-01 09:28N 26°06' W 080°07'0 0.0
2018-Nov-01 09:03N 26°06' W 080°07'0 0.0
2018-Nov-01 08:59N 26°06' W 080°07'0 0.0
2018-Nov-01 08:28N 26°06' W 080°07'0 0.0
2018-Nov-01 08:01N 26°06' W 080°07'0 0.0
2018-Nov-01 07:56N 26°06' W 080°07'0 0.0
2018-Nov-01 07:29N 26°06' W 080°07'0 0.0
2018-Nov-01 07:02N 26°06' W 080°07'0 0.2
2018-Nov-01 07:00N 26°06' W 080°07'0 0.0
2018-Nov-01 06:30N 26°06' W 080°07'0 0.0
2018-Nov-01 06:02N 26°06' W 080°07'0 0.0
2018-Nov-01 06:00N 26°06' W 080°07'0 0.0
2018-Nov-01 05:30N 26°06' W 080°07'0 0.0
2018-Nov-01 05:03N 26°06' W 080°07'0 0.0
2018-Nov-01 05:00N 26°06' W 080°07'0 0.0
2018-Nov-01 04:30N 26°06' W 080°07'0 0.0
2018-Nov-01 04:03N 26°06' W 080°07'0 0.0
2018-Nov-01 04:00N 26°06' W 080°07'0 0.0
2018-Nov-01 03:30N 26°06' W 080°07'0 0.0
2018-Nov-01 03:03N 26°06' W 080°07'0 0.0
2018-Nov-01 03:00N 26°06' W 080°07'0 0.0
2018-Nov-01 02:30N 26°06' W 080°07'  
Track history (hours):
 
Tides and Currents Weather Stations Pressure Air Temp Water Temp Dewpoint Dewpoint Depression Visibility Wind Speed Wind Dir Waves Ship Positions

Greymatters

Last reported at 2018-Nov-11 02:30 UTC. Time now 2018-Nov-17 16:57 UTC.
Position N 25°46' W 080°09'.

Length 45 m; draft 2.1 m.

Type: Pleasure craft. MMSI: 319826000.

Date/timePositionNaut miles runAvg speedWind from/ knotsBaromVisibWave heightAir tempDewpointWater temp
2018-Nov-11 02:30N 25°46' W 080°09'0 0.0
2018-Nov-11 02:00N 25°46' W 080°09'0 0.0
2018-Nov-11 01:21N 25°46' W 080°09'0 0.0
2018-Nov-11 01:01N 25°46' W 080°09'0 0.0
2018-Nov-11 00:31N 25°46' W 080°09'0 0.0
2018-Nov-10 23:58N 25°46' W 080°09'0 0.0
2018-Nov-10 23:32N 25°46' W 080°09'0 0.0
2018-Nov-10 23:02N 25°46' W 080°09'2 4.4
2018-Nov-10 22:32N 25°46' W 080°11'4 8.4
2018-Nov-10 22:02N 25°42' W 080°12'4 7.0
2018-Nov-10 21:32N 25°39' W 080°10'612.8
2018-Nov-10 21:02N 25°45' W 080°07'2 3.1
2018-Nov-10 20:32N 25°47' W 080°07'0 0.0
2018-Nov-10 20:00N 25°47' W 080°07'1 2.8
2018-Nov-10 19:32N 25°46' W 080°07'1 2.2
2018-Nov-10 19:00N 25°46' W 080°09'0 0.0
2018-Nov-10 18:30N 25°46' W 080°09'0 0.0
2018-Nov-10 17:54N 25°46' W 080°09'0 0.0
2018-Nov-10 17:31N 25°46' W 080°09'0 0.0
2018-Nov-10 17:01N 25°46' W 080°09'0 0.0
2018-Nov-10 16:31N 25°46' W 080°09'0 0.0
2018-Nov-10 16:02N 25°46' W 080°09'0 0.0
2018-Nov-10 15:32N 25°46' W 080°09'0 0.0
2018-Nov-10 15:02N 25°46' W 080°09'0 0.0
2018-Nov-10 14:30N 25°46' W 080°09'0 0.0
2018-Nov-10 14:00N 25°46' W 080°09'0 0.0
2018-Nov-10 13:30N 25°46' W 080°09'0 0.0
2018-Nov-10 12:58N 25°46' W 080°09'0 0.0
2018-Nov-10 12:31N 25°46' W 080°09'0 0.0
2018-Nov-10 12:01N 25°46' W 080°09'0 0.0
2018-Nov-10 11:32N 25°46' W 080°09'0 0.0
2018-Nov-10 11:02N 25°46' W 080°09'0 0.0
2018-Nov-10 10:32N 25°46' W 080°09'0 0.0
2018-Nov-10 10:00N 25°46' W 080°09'0 0.0
2018-Nov-10 09:27N 25°46' W 080°09'0 0.0
2018-Nov-10 08:57N 25°46' W 080°09'0 0.0
2018-Nov-10 08:28N 25°46' W 080°09'0 0.0
2018-Nov-10 08:01N 25°46' W 080°09'0 0.0
2018-Nov-10 07:28N 25°46' W 080°09'0 0.0
2018-Nov-10 06:59N 25°46' W 080°09'0 0.0
2018-Nov-10 06:32N 25°46' W 080°09'0 0.0
2018-Nov-10 05:56N 25°46' W 080°09'0 0.0
2018-Nov-10 05:30N 25°46' W 080°09'0 0.0
2018-Nov-10 04:54N 25°46' W 080°09'0 0.0
2018-Nov-10 04:30N 25°46' W 080°09'0 0.0
2018-Nov-10 03:55N 25°46' W 080°09'0 0.0
2018-Nov-10 03:31N 25°46' W 080°09'0 0.0
2018-Nov-10 03:01N 25°46' W 080°09'0 0.0
2018-Nov-10 02:23N 25°46' W 080°09'0 0.0
2018-Nov-10 02:02N 25°46' W 080°09'0 0.0
2018-Nov-10 01:32N 25°46' W 080°09'0 0.0
2018-Nov-10 01:00N 25°46' W 080°09'0 0.0
2018-Nov-10 00:30N 25°46' W 080°09'0 0.0
2018-Nov-10 00:00N 25°46' W 080°09'0 0.0
2018-Nov-09 23:31N 25°46' W 080°09'2 4.4
2018-Nov-09 23:02N 25°46' W 080°11'4 8.0
2018-Nov-09 22:32N 25°42' W 080°11'1 1.4
2018-Nov-09 21:56N 25°42' W 080°11'0 0.0
2018-Nov-09 21:18N 25°42' W 080°11'0 0.0
2018-Nov-09 20:51N 25°42' W 080°11'0 0.0
2018-Nov-09 20:30N 25°42' W 080°11'0 0.0
2018-Nov-09 20:01N 25°42' W 080°11'0 0.0
2018-Nov-09 19:31N 25°42' W 080°11'0 0.0
2018-Nov-09 18:58N 25°42' W 080°11'0 0.0
2018-Nov-09 18:29N 25°42' W 080°11'1 2.6
2018-Nov-09 18:02N 25°42' W 080°12'4 8.3
2018-Nov-09 17:32N 25°46' W 080°11'2 4.3
2018-Nov-09 17:00N 25°46' W 080°09'0 0.0
2018-Nov-09 16:24N 25°46' W 080°09'0 0.0
2018-Nov-09 15:57N 25°46' W 080°09'0 0.0
2018-Nov-09 15:28N 25°46' W 080°09'0 0.0
2018-Nov-09 15:01N 25°46' W 080°09'0 0.0
2018-Nov-09 14:31N 25°46' W 080°09'0 0.0
2018-Nov-09 14:02N 25°46' W 080°09'0 0.0
2018-Nov-09 13:26N 25°46' W 080°09'0 0.0
2018-Nov-09 12:56N 25°46' W 080°09'0 0.0
2018-Nov-09 12:30N 25°46' W 080°09'0 0.0
2018-Nov-09 11:57N 25°46' W 080°09'0 0.0
2018-Nov-09 11:30N 25°46' W 080°09'0 0.0
2018-Nov-09 11:01N 25°46' W 080°09'0 0.0
2018-Nov-09 10:31N 25°46' W 080°09'0 0.0
2018-Nov-09 10:01N 25°46' W 080°09'0 0.0
2018-Nov-09 09:32N 25°46' W 080°09'0 0.0
2018-Nov-09 09:02N 25°46' W 080°09'0 0.0
2018-Nov-09 08:32N 25°46' W 080°09'0 0.0
2018-Nov-09 08:00N 25°46' W 080°09'0 0.0
2018-Nov-09 07:30N 25°46' W 080°09'0 0.0
2018-Nov-09 06:57N 25°46' W 080°09'0 0.0
2018-Nov-09 06:31N 25°46' W 080°09'0 0.0
2018-Nov-09 06:01N 25°46' W 080°09'0 0.0
2018-Nov-09 05:31N 25°46' W 080°09'0 0.0
2018-Nov-09 04:59N 25°46' W 080°09'0 0.0
2018-Nov-09 04:32N 25°46' W 080°09'0 0.0
2018-Nov-09 03:59N 25°46' W 080°09'0 0.0
2018-Nov-09 03:30N 25°46' W 080°09'0 0.0
2018-Nov-09 02:57N 25°46' W 080°09'0 0.0
2018-Nov-09 02:30N 25°46' W 080°09'0 0.0
2018-Nov-09 02:01N 25°46' W 080°09'0 0.0
2018-Nov-09 01:31N 25°46' W 080°09'0 0.0
2018-Nov-09 00:55N 25°46' W 080°09'0 0.0
2018-Nov-09 00:32N 25°46' W 080°09'0 0.0
2018-Nov-09 00:02N 25°46' W 080°09'0 0.0
2018-Nov-08 23:32N 25°46' W 080°09'1 3.0
2018-Nov-08 23:02N 25°46' W 080°10'2 4.7
2018-Nov-08 22:32N 25°44' W 080°11'1 2.4
2018-Nov-08 22:02N 25°43' W 080°10'1 2.8
2018-Nov-08 21:32N 25°42' W 080°11'4 8.7
2018-Nov-08 21:02N 25°46' W 080°11'2 4.2
2018-Nov-08 20:31N 25°46' W 080°09'0 0.0
2018-Nov-08 20:02N 25°46' W 080°09'0 0.0
2018-Nov-08 19:32N 25°46' W 080°09'0 0.0
2018-Nov-08 18:59N 25°46' W 080°09'0 0.0
2018-Nov-08 18:30N 25°46' W 080°09'0 0.0
2018-Nov-08 17:57N 25°46' W 080°09'0 0.0
2018-Nov-08 17:30N 25°46' W 080°09'0 0.0
2018-Nov-08 17:01N 25°46' W 080°09'0 0.0
2018-Nov-08 16:31N 25°46' W 080°09'0 0.0
2018-Nov-08 15:58N 25°46' W 080°09'0 0.0
2018-Nov-08 15:32N 25°46' W 080°09'0 0.0
2018-Nov-08 14:59N 25°46' W 080°09'0 0.0
2018-Nov-08 14:32N 25°46' W 080°09'0 0.0
2018-Nov-08 14:00N 25°46' W 080°09'0 0.0
2018-Nov-08 13:30N 25°46' W 080°09'0 0.0
2018-Nov-08 13:00N 25°46' W 080°09'0 0.0
2018-Nov-08 12:31N 25°46' W 080°09'0 0.0
2018-Nov-08 12:01N 25°46' W 080°09'0 0.0
2018-Nov-08 11:31N 25°46' W 080°09'0 0.0
2018-Nov-08 10:59N 25°46' W 080°09'0 0.0
2018-Nov-08 10:32N 25°46' W 080°09'0 0.0
2018-Nov-08 10:02N 25°46' W 080°09'0 0.0
2018-Nov-08 09:27N 25°46' W 080°09'0 0.0
2018-Nov-08 09:00N 25°46' W 080°09'0 0.0
2018-Nov-08 08:27N 25°46' W 080°09'0 0.0
2018-Nov-08 08:01N 25°46' W 080°09'0 0.0
2018-Nov-08 07:25N 25°46' W 080°09'0 0.0
2018-Nov-08 06:58N 25°46' W 080°09'0 0.0
2018-Nov-08 06:23N 25°46' W 080°09'0 0.0
2018-Nov-08 05:59N 25°46' W 080°09'0 0.0
2018-Nov-08 05:32N 25°46' W 080°09'0 0.0
2018-Nov-08 04:54N 25°46' W 080°09'0 0.0
2018-Nov-08 04:30N 25°46' W 080°09'0 0.0
2018-Nov-08 04:00N 25°46' W 080°09'0 0.0
2018-Nov-08 03:28N 25°46' W 080°09'0 0.0
2018-Nov-08 02:55N 25°46' W 080°09'0 0.0
2018-Nov-08 02:31N 25°46' W 080°09'0 0.0
2018-Nov-08 02:02N 25°46' W 080°09'0 0.0
2018-Nov-08 01:32N 25°46' W 080°09'0 0.0
2018-Nov-08 01:02N 25°46' W 080°09'0 0.0
2018-Nov-08 00:42N 25°46' W 080°09'0 0.0
2018-Nov-08 00:30N 25°46' W 080°09'0 0.0
2018-Nov-08 00:27N 25°46' W 080°09'0 0.0
2018-Nov-08 00:00N 25°46' W 080°09'0 0.0
2018-Nov-07 23:30N 25°46' W 080°09'0 0.0
2018-Nov-07 22:55N 25°46' W 080°09'0 0.0
2018-Nov-07 22:31N 25°46' W 080°09'0 0.0
2018-Nov-07 22:01N 25°46' W 080°09'0 0.0
2018-Nov-07 21:32N 25°46' W 080°09'0 0.0
2018-Nov-07 21:02N 25°46' W 080°09'0 0.0
2018-Nov-07 20:32N 25°46' W 080°09'0 0.0
2018-Nov-07 20:00N 25°46' W 080°09'0 0.0
2018-Nov-07 19:30N 25°46' W 080°09'0 0.0
2018-Nov-07 18:49N 25°46' W 080°09'0 0.0
2018-Nov-07 18:31N 25°46' W 080°09'0 0.0
2018-Nov-07 18:01N 25°46' W 080°09'0 0.0
2018-Nov-07 17:31N 25°46' W 080°09'0 0.0
2018-Nov-07 16:56N 25°46' W 080°09'0 0.0
2018-Nov-07 16:32N 25°46' W 080°09'0 0.0
2018-Nov-07 16:02N 25°46' W 080°09'0 0.0
2018-Nov-07 15:27N 25°46' W 080°09'0 0.0
2018-Nov-07 15:00N 25°46' W 080°09'0 0.0
2018-Nov-07 14:30N 25°46' W 080°09'0 0.0
2018-Nov-07 14:01N 25°46' W 080°09'0 0.0
2018-Nov-07 13:31N 25°46' W 080°09'0 0.0
2018-Nov-07 13:01N 25°46' W 080°09'0 0.0
2018-Nov-07 12:32N 25°46' W 080°09'0 0.0
2018-Nov-07 12:02N 25°46' W 080°09'0 0.0
2018-Nov-07 11:26N 25°46' W 080°09'0 0.0
2018-Nov-07 11:00N 25°46' W 080°09'0 0.0
2018-Nov-07 10:30N 25°46' W 080°09'0 0.0
2018-Nov-07 10:00N 25°46' W 080°09'0 0.0
2018-Nov-07 09:28N 25°46' W 080°09'0 0.0
2018-Nov-07 08:58N 25°46' W 080°09'0 0.0
2018-Nov-07 08:26N 25°46' W 080°09'0 0.0
2018-Nov-07 07:53N 25°46' W 080°09'0 0.0
2018-Nov-07 07:32N 25°46' W 080°09'0 0.0
2018-Nov-07 07:02N 25°46' W 080°09'0 0.0
2018-Nov-07 06:30N 25°46' W 080°09'0 0.0
2018-Nov-07 06:00N 25°46' W 080°09'0 0.0
2018-Nov-07 05:30N 25°46' W 080°09'0 0.0
2018-Nov-07 05:01N 25°46' W 080°09'0 0.0
2018-Nov-07 04:28N 25°46' W 080°09'0 0.0
2018-Nov-06 23:20N 25°46' W 080°09'0 0.0
2018-Nov-06 22:59N 25°46' W 080°09'0 0.0
2018-Nov-06 21:59N 25°46' W 080°09'0 0.0
2018-Nov-06 21:30N 25°46' W 080°09'0 0.0
2018-Nov-06 21:00N 25°46' W 080°09'0 0.0
2018-Nov-06 20:30N 25°46' W 080°09'0 0.0
2018-Nov-06 20:01N 25°46' W 080°09'0 0.0
2018-Nov-06 19:55N 25°46' W 080°09'0 0.0
2018-Nov-06 19:28N 25°46' W 080°09'0 0.0
2018-Nov-06 18:59N 25°46' W 080°09'0 0.0
2018-Nov-06 18:29N 25°46' W 080°09'0 0.0
2018-Nov-06 17:59N 25°46' W 080°09'0 0.0
2018-Nov-06 17:24N 25°46' W 080°09'0 0.0
2018-Nov-06 17:03N 25°46' W 080°09'0 0.1
2018-Nov-06 17:00N 25°46' W 080°09'0 0.1
2018-Nov-06 16:30N 25°46' W 080°09'0 0.1
2018-Nov-06 16:01N 25°46' W 080°09'0 0.0
2018-Nov-06 15:28N 25°46' W 080°09'0 0.0
2018-Nov-06 15:01N 25°46' W 080°09'0 0.1
2018-Nov-06 14:58N 25°46' W 080°09'0 0.0
2018-Nov-06 14:29N 25°46' W 080°09'0 0.0
2018-Nov-06 14:02N 25°46' W 080°09'0 0.0
2018-Nov-06 13:59N 25°46' W 080°09'0 0.0
2018-Nov-06 13:26N 25°46' W 080°09'0 0.0
2018-Nov-06 13:00N 25°46' W 080°09'0 0.0
2018-Nov-06 12:30N 25°46' W 080°09'0 0.0
2018-Nov-06 12:03N 25°46' W 080°09'0 0.0
2018-Nov-06 12:00N 25°46' W 080°09'0 0.0
2018-Nov-06 11:28N 25°46' W 080°09'0 0.0
2018-Nov-06 10:55N 25°46' W 080°09'0 0.0
2018-Nov-06 10:28N 25°46' W 080°09'0 0.0
2018-Nov-06 10:02N 25°46' W 080°09'0 0.0
2018-Nov-06 09:59N 25°46' W 080°09'0 0.0
2018-Nov-06 09:23N 25°46' W 080°09'0 0.0
2018-Nov-06 09:02N 25°46' W 080°09'0 0.0
2018-Nov-06 08:59N 25°46' W 080°09'0 0.0
2018-Nov-06 08:27N 25°46' W 080°09'0 0.0
2018-Nov-06 08:00N 25°46' W 080°09'0 0.0
2018-Nov-06 07:30N 25°46' W 080°09'0 0.0
2018-Nov-06 06:58N 25°46' W 080°09'0 0.0
2018-Nov-06 06:28N 25°46' W 080°09'0 0.0
2018-Nov-06 05:55N 25°46' W 080°09'0 0.0
2018-Nov-06 05:29N 25°46' W 080°09'0 0.0
2018-Nov-06 05:02N 25°46' W 080°09'0 0.0
2018-Nov-06 04:56N 25°46' W 080°09'0 0.0
2018-Nov-06 04:29N 25°46' W 080°09'0 0.0
2018-Nov-06 04:03N 25°46' W 080°09'0 0.0
2018-Nov-06 04:00N 25°46' W 080°09'0 0.0
2018-Nov-06 03:30N 25°46' W 080°09'0 0.0
2018-Nov-06 03:03N 25°46' W 080°09'0 0.1
2018-Nov-06 03:00N 25°46' W 080°09'0 0.0
2018-Nov-06 02:28N 25°46' W 080°09'0 0.0
2018-Nov-06 01:58N 25°46' W 080°09'0 0.0
2018-Nov-06 01:19N 25°46' W 080°09'0 0.0
2018-Nov-06 01:02N 25°46' W 080°09'0 0.0
2018-Nov-05 23:27N 25°46' W 080°09'0 0.0
2018-Nov-05 23:00N 25°46' W 080°09'0 0.0
2018-Nov-05 22:24N 25°46' W 080°09'0 0.0
2018-Nov-05 21:55N 25°46' W 080°09'0 0.0
2018-Nov-05 21:28N 25°46' W 080°09'0 0.0
2018-Nov-05 21:01N 25°46' W 080°09'0 0.0
2018-Nov-05 20:55N 25°46' W 080°09'0 0.0
2018-Nov-05 20:26N 25°46' W 080°09'0 0.0
2018-Nov-05 20:02N 25°46' W 080°09'0 0.0
2018-Nov-05 19:59N 25°46' W 080°09'0 0.0
2018-Nov-05 19:31N 25°46' W 080°09'3 6.1
2018-Nov-05 19:03N 25°46' W 080°05'114.9
2018-Nov-05 19:00N 25°47' W 080°05'815.1
2018-Nov-05 18:31N 25°54' W 080°04'715.0
2018-Nov-05 18:03N 26°01' W 080°04'117.3
2018-Nov-05 18:00N 26°02' W 080°05'5 9.3
2018-Nov-05 17:30N 26°06' W 080°07'0 0.0
2018-Nov-05 17:03N 26°06' W 080°07'0 0.0
2018-Nov-05 17:00N 26°06' W 080°07'0 0.0
2018-Nov-05 16:30N 26°06' W 080°07'0 0.0
2018-Nov-05 16:03N 26°06' W 080°07'0 0.0
2018-Nov-05 16:00N 26°06' W 080°07'0 0.0
2018-Nov-05 15:30N 26°06' W 080°07'0 0.0
2018-Nov-05 15:03N 26°06' W 080°07'0 0.0
2018-Nov-05 15:00N 26°06' W 080°07'0 0.0
2018-Nov-05 14:30N 26°06' W 080°07'0 0.0
2018-Nov-05 14:03N 26°06' W 080°07'0 0.0
2018-Nov-05 14:00N 26°06' W 080°07'0 0.0
2018-Nov-05 13:03N 26°06' W 080°07'0 0.0
2018-Nov-05 13:00N 26°06' W 080°07'0 0.0
2018-Nov-05 12:30N 26°06' W 080°07'0 0.0
2018-Nov-05 12:03N 26°06' W 080°07'0 0.0
2018-Nov-05 12:00N 26°06' W 080°07'0 0.0
2018-Nov-05 11:30N 26°06' W 080°07'0 0.0
2018-Nov-05 11:03N 26°06' W 080°07'0 0.0
2018-Nov-05 11:00N 26°06' W 080°07'0 0.0
2018-Nov-05 10:28N 26°06' W 080°07'0 0.0
2018-Nov-05 10:03N 26°06' W 080°07'0 0.0
2018-Nov-05 09:59N 26°06' W 080°07'0 0.0
2018-Nov-05 09:30N 26°06' W 080°07'0 0.0
2018-Nov-05 09:03N 26°06' W 080°07'0 0.0
2018-Nov-05 09:00N 26°06' W 080°07'0 0.0
2018-Nov-05 08:30N 26°06' W 080°07'0 0.0
2018-Nov-05 08:03N 26°06' W 080°07'0 0.0
2018-Nov-05 08:00N 26°06' W 080°07'0 0.0
2018-Nov-05 07:30N 26°06' W 080°07'0 0.0
2018-Nov-05 07:03N 26°06' W 080°07'0 0.0
2018-Nov-05 07:00N 26°06' W 080°07'0 0.0
2018-Nov-05 06:30N 26°06' W 080°07'0 0.0
2018-Nov-05 06:03N 26°06' W 080°07'0 0.0
2018-Nov-05 06:00N 26°06' W 080°07'0 0.0
2018-Nov-05 05:30N 26°06' W 080°07'0 0.0
2018-Nov-05 05:02N 26°06' W 080°07'0 0.0
2018-Nov-05 05:00N 26°06' W 080°07'0 0.0
2018-Nov-05 04:30N 26°06' W 080°07'0 0.0
2018-Nov-05 04:03N 26°06' W 080°07'0 0.0
2018-Nov-05 04:00N 26°06' W 080°07'0 0.0
2018-Nov-05 03:30N 26°06' W 080°07'0 0.0
2018-Nov-05 03:03N 26°06' W 080°07'0 0.0
2018-Nov-05 02:59N 26°06' W 080°07'0 0.0
2018-Nov-05 02:30N 26°06' W 080°07'0 0.0
2018-Nov-05 02:03N 26°06' W 080°07'0 0.0
2018-Nov-05 02:00N 26°06' W 080°07'0 0.0
2018-Nov-05 01:30N 26°06' W 080°07'0 0.0
2018-Nov-05 01:03N 26°06' W 080°07'0 0.0
2018-Nov-05 01:00N 26°06' W 080°07'0 0.0
2018-Nov-05 00:29N 26°06' W 080°07'0 0.0
2018-Nov-05 00:03N 26°06' W 080°07'0 0.0
2018-Nov-05 00:00N 26°06' W 080°07'0 0.0
2018-Nov-04 23:30N 26°06' W 080°07'0 0.0
2018-Nov-04 23:03N 26°06' W 080°07'0 0.0
2018-Nov-04 23:00N 26°06' W 080°07'0 0.0
2018-Nov-04 22:30N 26°06' W 080°07'0 0.0
2018-Nov-04 22:03N 26°06' W 080°07'0 0.0
2018-Nov-04 22:00N 26°06' W 080°07'0 0.0
2018-Nov-04 21:29N 26°06' W 080°07'0 0.0
2018-Nov-04 21:03N 26°06' W 080°07'0 0.0
2018-Nov-04 21:00N 26°06' W 080°07'0 0.0
2018-Nov-04 20:30N 26°06' W 080°07'0 0.0
2018-Nov-04 20:03N 26°06' W 080°07'0 0.0
2018-Nov-04 20:00N 26°06' W 080°07'0 0.0
2018-Nov-04 19:30N 26°06' W 080°07'0 0.0
2018-Nov-04 19:03N 26°06' W 080°07'0 0.0
2018-Nov-04 19:00N 26°06' W 080°07'0 0.0
2018-Nov-04 18:30N 26°06' W 080°07'0 0.0
2018-Nov-04 18:03N 26°06' W 080°07'0 0.0
2018-Nov-04 18:00N 26°06' W 080°07'0 0.0
2018-Nov-04 17:30N 26°06' W 080°07'0 0.0
2018-Nov-04 17:00N 26°06' W 080°07'0 0.0
2018-Nov-04 16:30N 26°06' W 080°07'0 0.0
2018-Nov-04 16:03N 26°06' W 080°07'0 0.0
2018-Nov-04 16:01N 26°06' W 080°07'0 0.0
2018-Nov-04 15:31N 26°06' W 080°07'0 0.0
2018-Nov-04 15:02N 26°06' W 080°07'0 0.0
2018-Nov-04 15:01N 26°06' W 080°07'0 0.0
2018-Nov-04 14:30N 26°06' W 080°07'0 0.0
2018-Nov-04 14:03N 26°06' W 080°07'0 0.0
2018-Nov-04 14:01N 26°06' W 080°07'0 0.0
2018-Nov-04 13:30N 26°06' W 080°07'0 0.0
2018-Nov-04 13:03N 26°06' W 080°07'0 0.0
2018-Nov-04 13:00N 26°06' W 080°07'0 0.0
2018-Nov-04 12:30N 26°06' W 080°07'0 0.0
2018-Nov-04 12:03N 26°06' W 080°07'0 0.0
2018-Nov-04 12:00N 26°06' W 080°07'0 0.0
2018-Nov-04 11:30N 26°06' W 080°07'0 0.0
2018-Nov-04 11:03N 26°06' W 080°07'0 0.0
2018-Nov-04 11:00N 26°06' W 080°07'0 0.0
2018-Nov-04 10:30N 26°06' W 080°07'0 0.0
2018-Nov-04 10:03N 26°06' W 080°07'0 0.0
2018-Nov-04 10:00N 26°06' W 080°07'0 0.0
2018-Nov-04 09:30N 26°06' W 080°07'0 0.0
2018-Nov-04 09:03N 26°06' W 080°07'0 0.0
2018-Nov-04 09:00N 26°06' W 080°07'0 0.0
2018-Nov-04 08:30N 26°06' W 080°07'0 0.0
2018-Nov-04 08:04N 26°06' W 080°07'0 0.0
2018-Nov-04 08:00N 26°06' W 080°07'0 0.0
2018-Nov-04 07:30N 26°06' W 080°07'0 0.0
2018-Nov-04 07:02N 26°06' W 080°07'0 0.0
2018-Nov-04 07:00N 26°06' W 080°07'0 0.0
2018-Nov-04 06:30N 26°06' W 080°07'0 0.0
2018-Nov-04 06:02N 26°06' W 080°07'0 0.0
2018-Nov-04 06:00N 26°06' W 080°07'0 0.0
2018-Nov-04 05:30N 26°06' W 080°07'0 0.0
2018-Nov-04 05:03N 26°06' W 080°07'0 0.0
2018-Nov-04 05:00N 26°06' W 080°07'0 0.0
2018-Nov-04 04:30N 26°06' W 080°07'0 0.0
2018-Nov-04 04:03N 26°06' W 080°07'0 0.0
2018-Nov-04 04:00N 26°06' W 080°07'0 0.0
2018-Nov-04 03:31N 26°06' W 080°07'0 0.0
2018-Nov-04 03:03N 26°06' W 080°07'0 0.0
2018-Nov-04 03:00N 26°06' W 080°07'0 0.0
2018-Nov-04 02:30N 26°06' W 080°07'0 0.0
2018-Nov-04 02:03N 26°06' W 080°07'0 0.0
2018-Nov-04 02:00N 26°06' W 080°07'0 0.0
2018-Nov-04 01:30N 26°06' W 080°07'0 0.0
2018-Nov-04 01:03N 26°06' W 080°07'0 0.0
2018-Nov-04 01:01N 26°06' W 080°07'0 0.0
2018-Nov-04 00:31N 26°06' W 080°07'0 0.0
2018-Nov-04 00:03N 26°06' W 080°07'0 0.0
2018-Nov-04 00:01N 26°06' W 080°07'0 0.0
2018-Nov-03 23:31N 26°06' W 080°07'0 0.0
2018-Nov-03 23:03N 26°06' W 080°07'0 0.0
2018-Nov-03 22:59N 26°06' W 080°07'0 0.0
2018-Nov-03 22:30N 26°06' W 080°07'0 0.0
2018-Nov-03 20:30N 26°06' W 080°07'0 0.0
2018-Nov-03 20:01N 26°06' W 080°07'0 0.0
2018-Nov-03 20:00N 26°06' W 080°07'0 0.0
2018-Nov-03 19:30N 26°06' W 080°07'0 0.0
2018-Nov-03 19:03N 26°06' W 080°07'0 0.0
2018-Nov-03 19:00N 26°06' W 080°07'0 0.0
2018-Nov-03 18:30N 26°06' W 080°07'0 0.0
2018-Nov-03 18:03N 26°06' W 080°07'0 0.0
2018-Nov-03 18:00N 26°06' W 080°07'0 0.0
2018-Nov-03 17:30N 26°06' W 080°07'0 0.0
2018-Nov-03 17:03N 26°06' W 080°07'0 0.0
2018-Nov-03 17:00N 26°06' W 080°07'0 0.0
2018-Nov-03 16:29N 26°06' W 080°07'0 0.0
2018-Nov-03 16:03N 26°06' W 080°07'0 0.0
2018-Nov-03 16:00N 26°06' W 080°07'0 0.0
2018-Nov-03 15:30N 26°06' W 080°07'0 0.0
2018-Nov-03 15:03N 26°06' W 080°07'0 0.0
2018-Nov-03 15:00N 26°06' W 080°07'0 0.0
2018-Nov-03 14:30N 26°06' W 080°07'0 0.0
2018-Nov-03 14:02N 26°06' W 080°07'0 0.0
2018-Nov-03 14:00N 26°06' W 080°07'0 0.0
2018-Nov-03 13:30N 26°06' W 080°07'0 0.0
2018-Nov-03 13:03N 26°06' W 080°07'0 0.1
2018-Nov-03 13:00N 26°06' W 080°07'0 0.0
2018-Nov-03 12:31N 26°06' W 080°07'0 0.0
2018-Nov-03 12:03N 26°06' W 080°07'0 0.1
2018-Nov-03 12:00N 26°06' W 080°07'0 0.0
2018-Nov-03 11:30N 26°06' W 080°07'0 0.0
2018-Nov-03 11:03N 26°06' W 080°07'0 0.0
2018-Nov-03 11:00N 26°06' W 080°07'0 0.0
2018-Nov-03 10:31N 26°06' W 080°07'0 0.0
2018-Nov-03 10:03N 26°06' W 080°07'0 0.0
2018-Nov-03 10:00N 26°06' W 080°07'0 0.0
2018-Nov-03 09:30N 26°06' W 080°07'0 0.0
2018-Nov-03 09:03N 26°06' W 080°07'0 0.0
2018-Nov-03 09:00N 26°06' W 080°07'0 0.0
2018-Nov-03 08:30N 26°06' W 080°07'0 0.0
2018-Nov-03 08:03N 26°06' W 080°07'0 0.0
2018-Nov-03 07:59N 26°06' W 080°07'0 0.0
2018-Nov-03 07:30N 26°06' W 080°07'0 0.0
2018-Nov-03 07:03N 26°06' W 080°07'0 0.0
2018-Nov-03 07:00N 26°06' W 080°07'0 0.0
2018-Nov-03 06:30N 26°06' W 080°07'0 0.0
2018-Nov-03 06:03N 26°06' W 080°07'0 0.0
2018-Nov-03 06:00N 26°06' W 080°07'0 0.0
2018-Nov-03 05:30N 26°06' W 080°07'0 0.0
2018-Nov-03 05:03N 26°06' W 080°07'0 0.0
2018-Nov-03 05:00N 26°06' W 080°07'0 0.0
2018-Nov-03 04:30N 26°06' W 080°07'0 0.0
2018-Nov-03 04:03N 26°06' W 080°07'0 0.0
2018-Nov-03 04:00N 26°06' W 080°07'0 0.0
2018-Nov-03 03:30N 26°06' W 080°07'0 0.0
2018-Nov-03 03:03N 26°06' W 080°07'0 0.0
2018-Nov-03 03:00N 26°06' W 080°07'0 0.0
2018-Nov-03 02:30N 26°06' W 080°07'0 0.0
2018-Nov-03 01:55N 26°06' W 080°07'0 0.0
2018-Nov-03 01:30N 26°06' W 080°07'0 0.0
2018-Nov-03 01:03N 26°06' W 080°07'0 0.0
2018-Nov-03 01:00N 26°06' W 080°07'0 0.0
2018-Nov-03 00:30N 26°06' W 080°07'0 0.0
2018-Nov-03 00:03N 26°06' W 080°07'0 0.0
2018-Nov-03 00:00N 26°06' W 080°07'0 0.0
2018-Nov-02 23:30N 26°06' W 080°07'0 0.0
2018-Nov-02 23:03N 26°06' W 080°07'0 0.0
2018-Nov-02 22:57N 26°06' W 080°07'0 0.0
2018-Nov-02 22:29N 26°06' W 080°07'0 0.0
2018-Nov-02 22:02N 26°06' W 080°07'0 0.0
2018-Nov-02 21:59N 26°06' W 080°07'0 0.0
2018-Nov-02 21:29N 26°06' W 080°07'0 0.0
2018-Nov-02 21:03N 26°06' W 080°07'0 0.0
2018-Nov-02 21:00N 26°06' W 080°07'0 0.0
2018-Nov-02 20:29N 26°06' W 080°07'0 0.0
2018-Nov-02 20:02N 26°06' W 080°07'0 0.0
2018-Nov-02 19:59N 26°06' W 080°07'0 0.0
2018-Nov-02 19:30N 26°06' W 080°07'0 0.0
2018-Nov-02 19:03N 26°06' W 080°07'0 0.0
2018-Nov-02 19:00N 26°06' W 080°07'0 0.0
2018-Nov-02 18:30N 26°06' W 080°07'0 0.0
2018-Nov-02 18:03N 26°06' W 080°07'0 0.0
2018-Nov-02 18:00N 26°06' W 080°07'0 0.0
2018-Nov-02 17:30N 26°06' W 080°07'0 0.0
2018-Nov-02 17:03N 26°06' W 080°07'0 0.0
2018-Nov-02 17:00N 26°06' W 080°07'0 0.0
2018-Nov-02 16:30N 26°06' W 080°07'0 0.0
2018-Nov-02 16:03N 26°06' W 080°07'0 0.0
2018-Nov-02 16:00N 26°06' W 080°07'0 0.0
2018-Nov-02 15:30N 26°06' W 080°07'0 0.0
2018-Nov-02 15:03N 26°06' W 080°07'0 0.0
2018-Nov-02 15:00N 26°06' W 080°07'0 0.0
2018-Nov-02 14:03N 26°06' W 080°07'0 0.0
2018-Nov-02 14:00N 26°06' W 080°07'0 0.0
2018-Nov-02 13:30N 26°06' W 080°07'0 0.0
2018-Nov-02 13:00N 26°06' W 080°07'0 0.0
2018-Nov-02 12:30N 26°06' W 080°07'0 0.0
2018-Nov-02 12:03N 26°06' W 080°07'0 0.0
2018-Nov-02 12:00N 26°06' W 080°07'0 0.0
2018-Nov-02 11:29N 26°06' W 080°07'0 0.0
2018-Nov-02 11:03N 26°06' W 080°07'0 0.0
2018-Nov-02 10:59N 26°06' W 080°07'0 0.0
2018-Nov-02 10:30N 26°06' W 080°07'0 0.0
2018-Nov-02 10:03N 26°06' W 080°07'0 0.0
2018-Nov-02 10:00N 26°06' W 080°07'0 0.0
2018-Nov-02 09:30N 26°06' W 080°07'0 0.0
2018-Nov-02 09:03N 26°06' W 080°07'0 0.0
2018-Nov-02 09:00N 26°06' W 080°07'0 0.0
2018-Nov-02 08:30N 26°06' W 080°07'0 0.0
2018-Nov-02 08:02N 26°06' W 080°07'0 0.0
2018-Nov-02 08:00N 26°06' W 080°07'0 0.0
2018-Nov-02 07:30N 26°06' W 080°07'0 0.0
2018-Nov-02 07:03N 26°06' W 080°07'0 0.0
2018-Nov-02 07:00N 26°06' W 080°07'0 0.0
2018-Nov-02 06:29N 26°06' W 080°07'0 0.0
2018-Nov-02 06:03N 26°06' W 080°07'0 0.0
2018-Nov-02 05:59N 26°06' W 080°07'0 0.0
2018-Nov-02 05:30N 26°06' W 080°07'0 0.0
2018-Nov-02 05:02N 26°06' W 080°07'0 0.0
2018-Nov-02 05:00N 26°06' W 080°07'0 0.0
2018-Nov-02 04:30N 26°06' W 080°07'0 0.0
2018-Nov-02 04:03N 26°06' W 080°07'0 0.0
2018-Nov-02 04:00N 26°06' W 080°07'0 0.0
2018-Nov-02 03:30N 26°06' W 080°07'0 0.0
2018-Nov-02 03:03N 26°06' W 080°07'0 0.0
2018-Nov-02 03:00N 26°06' W 080°07'0 0.0
2018-Nov-02 02:30N 26°06' W 080°07'0 0.0
2018-Nov-02 02:02N 26°06' W 080°07'0 0.0
2018-Nov-02 02:00N 26°06' W 080°07'0 0.0
2018-Nov-02 01:30N 26°06' W 080°07'0 0.0
2018-Nov-02 01:02N 26°06' W 080°07'0 0.0
2018-Nov-02 01:00N 26°06' W 080°07'0 0.0
2018-Nov-02 00:56N 26°06' W 080°07'0 0.0
2018-Nov-02 00:36N 26°06' W 080°07'0 0.0
2018-Nov-02 00:29N 26°06' W 080°07'0 0.0
2018-Nov-02 00:02N 26°06' W 080°07'0 0.0
2018-Nov-02 00:00N 26°06' W 080°07'0 0.0
2018-Nov-01 23:30N 26°06' W 080°07'0 0.0
2018-Nov-01 23:00N 26°06' W 080°07'0 0.0
2018-Nov-01 22:29N 26°06' W 080°07'0 0.0
2018-Nov-01 22:03N 26°06' W 080°07'0 0.0
2018-Nov-01 21:58N 26°06' W 080°07'0 0.0
2018-Nov-01 21:29N 26°06' W 080°07'0 0.0
2018-Nov-01 21:03N 26°06' W 080°07'0 0.0
2018-Nov-01 21:00N 26°06' W 080°07'0 0.0
2018-Nov-01 20:30N 26°06' W 080°07'0 0.0
2018-Nov-01 20:03N 26°06' W 080°07'0 0.0
2018-Nov-01 20:00N 26°06' W 080°07'0 0.0
2018-Nov-01 19:30N 26°06' W 080°07'0 0.0
2018-Nov-01 19:03N 26°06' W 080°07'0 0.0
2018-Nov-01 19:00N 26°06' W 080°07'0 0.0
2018-Nov-01 18:30N 26°06' W 080°07'0 0.0
2018-Nov-01 18:03N 26°06' W 080°07'0 0.0
2018-Nov-01 18:00N 26°06' W 080°07'0 0.0
2018-Nov-01 17:30N 26°06' W 080°07'0 0.0
2018-Nov-01 17:03N 26°06' W 080°07'0 0.0
2018-Nov-01 17:00N 26°06' W 080°07'0 0.0
2018-Nov-01 16:30N 26°06' W 080°07'0 0.0
2018-Nov-01 16:03N 26°06' W 080°07'0 0.0
2018-Nov-01 15:59N 26°06' W 080°07'0 0.0
2018-Nov-01 15:30N 26°06' W 080°07'0 0.0
2018-Nov-01 15:03N 26°06' W 080°07'0 0.0
2018-Nov-01 15:00N 26°06' W 080°07'0 0.0
2018-Nov-01 14:03N 26°06' W 080°07'0 0.0
2018-Nov-01 14:00N 26°06' W 080°07'0 0.0
2018-Nov-01 13:30N 26°06' W 080°07'0 0.0
2018-Nov-01 13:03N 26°06' W 080°07'0 0.1
2018-Nov-01 12:59N 26°06' W 080°07'0 0.0
2018-Nov-01 12:30N 26°06' W 080°07'0 0.0
2018-Nov-01 12:02N 26°06' W 080°07'0 0.0
2018-Nov-01 12:00N 26°06' W 080°07'0 0.0
2018-Nov-01 11:29N 26°06' W 080°07'0 0.0
2018-Nov-01 11:03N 26°06' W 080°07'0 0.0
2018-Nov-01 11:00N 26°06' W 080°07'0 0.0
2018-Nov-01 10:24N 26°06' W 080°07'0 0.0
2018-Nov-01 10:00N 26°06' W 080°07'0 0.0
2018-Nov-01 09:28N 26°06' W 080°07'0 0.0
2018-Nov-01 09:03N 26°06' W 080°07'0 0.0
2018-Nov-01 08:59N 26°06' W 080°07'0 0.0
2018-Nov-01 08:28N 26°06' W 080°07'0 0.0
2018-Nov-01 08:01N 26°06' W 080°07'0 0.0
2018-Nov-01 07:56N 26°06' W 080°07'0 0.0
2018-Nov-01 07:29N 26°06' W 080°07'0 0.0
2018-Nov-01 07:02N 26°06' W 080°07'0 0.2
2018-Nov-01 07:00N 26°06' W 080°07'0 0.0
2018-Nov-01 06:30N 26°06' W 080°07'0 0.0
2018-Nov-01 06:02N 26°06' W 080°07'0 0.0
2018-Nov-01 06:00N 26°06' W 080°07'0 0.0
2018-Nov-01 05:30N 26°06' W 080°07'0 0.0
2018-Nov-01 05:03N 26°06' W 080°07'0 0.0
2018-Nov-01 05:00N 26°06' W 080°07'0 0.0
2018-Nov-01 04:30N 26°06' W 080°07'0 0.0
2018-Nov-01 04:03N 26°06' W 080°07'0 0.0
2018-Nov-01 04:00N 26°06' W 080°07'0 0.0
2018-Nov-01 03:30N 26°06' W 080°07'0 0.0
2018-Nov-01 03:03N 26°06' W 080°07'0 0.0
2018-Nov-01 03:00N 26°06' W 080°07'0 0.0
2018-Nov-01 02:30N 26°06' W 080°07'  

Dump ship's entire track history